Time;durP1;ratioP1;P1;durP2;ratioP2;P2;SDS_P1;SDS_P2;PMS_P1;PMS_P2;Temp;Humidity;BMP_temperature;BMP_pressure;BME280_temperature;BME280_humidity;BME280_pressure;Samples;Min_cycle;Max_cycle;Signal;HPM_P1;HPM_P2
2021/11/11 00:02:13;;;;;;;6.60;6.00;;;;;;;3.16;100.00;101536.09;5073385;28;20701;-75
2021/11/11 00:04:39;;;;;;;6.37;5.77;;;;;;;2.80;100.00;101530.94;5071881;28;20182;-75
2021/11/11 00:07:05;;;;;;;8.70;6.00;;;;;;;2.79;100.00;101535.50;5073377;28;20190;-75
2021/11/11 00:09:31;;;;;;;5.90;5.30;;;;;;;2.77;100.00;101537.63;5073276;28;20274;-75
2021/11/11 00:11:58;;;;;;;5.60;5.10;;;;;;;2.67;100.00;101534.66;5073434;28;20210;-76
2021/11/11 00:14:24;;;;;;;5.03;4.63;;;;;;;2.45;100.00;101528.97;5073049;28;20198;-75
2021/11/11 00:16:50;;;;;;;8.00;4.27;;;;;;;2.55;100.00;101537.31;5073340;28;20198;-75
2021/11/11 00:19:16;;;;;;;5.53;4.00;;;;;;;2.72;100.00;101547.44;5073132;28;20307;-75
2021/11/11 00:21:41;;;;;;;4.33;3.93;;;;;;;2.79;100.00;101546.28;5071763;28;20677;-75
2021/11/11 00:24:07;;;;;;;8.93;5.03;;;;;;;2.50;100.00;101533.69;5072938;28;20532;-75
2021/11/11 00:26:33;;;;;;;6.50;5.90;;;;;;;2.05;100.00;101528.72;5073074;28;20205;-75
2021/11/11 00:28:58;;;;;;;8.13;5.33;;;;;;;1.76;100.00;101522.28;5073237;28;20522;-75
2021/11/11 00:31:24;;;;;;;12.27;5.67;;;;;;;1.59;100.00;101499.66;5072898;28;20528;-75
2021/11/11 00:33:50;;;;;;;6.30;5.13;;;;;;;1.54;100.00;101500.34;5072835;28;20235;-75
2021/11/11 00:36:15;;;;;;;6.80;5.60;;;;;;;1.47;100.00;101489.69;5072869;28;20622;-75
2021/11/11 00:38:41;;;;;;;7.07;5.93;;;;;;;1.46;100.00;101489.91;5072890;28;20198;-75
2021/11/11 00:41:07;;;;;;;5.00;4.53;;;;;;;2.13;100.00;101498.75;5071482;28;20575;-75
2021/11/11 00:43:33;;;;;;;5.97;5.43;;;;;;;2.51;100.00;101500.25;5072755;28;20190;-75
2021/11/11 00:45:59;;;;;;;7.93;5.07;;;;;;;2.49;100.00;101514.00;5072599;28;20163;-75
2021/11/11 00:48:24;;;;;;;4.27;3.93;;;;;;;2.67;100.00;101513.91;5073165;28;20590;-75
2021/11/11 00:50:50;;;;;;;5.70;4.77;;;;;;;2.36;100.00;101504.22;5072648;28;20618;-75
2021/11/11 00:53:15;;;;;;;4.90;4.50;;;;;;;1.72;100.00;101497.63;5072472;28;20181;-76
2021/11/11 00:55:41;;;;;;;5.27;4.60;;;;;;;1.43;100.00;101495.72;5072520;28;20254;-75
2021/11/11 00:58:06;;;;;;;5.90;5.30;;;;;;;1.36;100.00;101487.72;5069216;28;20188;-75
2021/11/11 01:00:35;;;;;;;4.13;3.80;;;;;;;1.62;100.00;101493.84;5072734;28;20246;-75
2021/11/11 01:03:00;;;;;;;4.13;3.73;;;;;;;1.69;100.00;101484.63;5072623;28;20179;-75
2021/11/11 01:05:26;;;;;;;6.43;4.27;;;;;;;1.83;100.00;101485.28;5071915;28;20622;-75
2021/11/11 01:07:51;;;;;;;4.37;3.97;;;;;;;1.81;100.00;101487.38;5072101;28;20645;-75
2021/11/11 01:10:18;;;;;;;8.17;5.00;;;;;;;1.61;100.00;101479.56;5072204;28;20186;-75
2021/11/11 01:12:45;;;;;;;6.27;5.70;;;;;;;1.37;100.00;101472.41;5072286;28;20181;-76
2021/11/11 01:15:14;;;;;;;4.50;3.87;;;;;;;1.25;100.00;101469.63;5071275;28;20179;-75
2021/11/11 01:17:40;;;;;;;4.90;4.40;;;;;;;1.12;100.00;101472.47;5072167;28;20671;-75
2021/11/11 01:20:08;;;;;;;7.27;5.20;;;;;;;1.07;100.00;101465.06;5071819;28;20182;-75
2021/11/11 01:22:35;;;;;;;9.50;5.00;;;;;;;0.99;100.00;101457.28;5071874;28;20193;-76
2021/11/11 01:25:03;;;;;;;6.10;4.27;;;;;;;1.16;100.00;101477.19;5071840;28;20182;-75
2021/11/11 01:27:28;;;;;;;5.27;4.77;;;;;;;1.48;100.00;101485.13;5071740;28;20180;-75
2021/11/11 01:29:54;;;;;;;6.67;4.63;;;;;;;1.46;100.00;101481.81;5071772;28;20534;-75
2021/11/11 01:32:19;;;;;;;4.63;4.20;;;;;;;1.64;100.00;101486.38;5071879;28;20179;-75
2021/11/11 01:34:45;;;;;;;6.47;4.17;;;;;;;1.82;100.00;101488.19;5070820;28;20193;-75
2021/11/11 01:37:10;;;;;;;5.03;4.53;;;;;;;1.98;100.00;101487.56;5071673;28;20162;-75
2021/11/11 01:39:35;;;;;;;5.03;4.53;;;;;;;2.11;100.00;101486.56;5071592;28;20182;-75
2021/11/11 01:42:01;;;;;;;4.07;3.70;;;;;;;2.19;100.00;101486.25;5071448;28;20662;-75
2021/11/11 01:44:26;;;;;;;4.50;3.73;;;;;;;2.24;100.00;101487.19;5071245;28;20174;-75
2021/11/11 01:46:52;;;;;;;4.10;3.33;;;;;;;2.23;100.00;101480.16;5071400;28;20173;-75
2021/11/11 01:49:17;;;;;;;6.03;4.33;;;;;;;2.30;100.00;101480.84;5071414;28;20177;-75
2021/11/11 01:51:44;;;;;;;6.00;3.60;;;;;;;2.15;100.00;101468.88;5071310;28;20193;-76
2021/11/11 01:54:10;;;;;;;4.43;3.90;;;;;;;1.64;100.00;101457.56;5071198;28;20191;-75
2021/11/11 01:56:36;;;;;;;5.57;4.23;;;;;;;1.78;100.00;101456.34;5071438;28;20174;-76
2021/11/11 01:59:02;;;;;;;4.87;3.87;;;;;;;2.08;100.00;101456.31;5071251;28;20158;-74
2021/11/11 02:01:28;;;;;;;4.77;4.27;;;;;;;2.24;100.00;101449.44;5071098;28;20202;-75
2021/11/11 02:03:53;;;;;;;4.30;3.90;;;;;;;2.30;100.00;101447.69;5071078;28;20197;-75
2021/11/11 02:06:22;;;;;;;4.00;3.60;;;;;;;2.34;100.00;101433.53;5071041;28;20265;-75
2021/11/11 02:08:47;;;;;;;4.87;4.40;;;;;;;2.36;100.00;101444.91;5071072;28;20180;-75
2021/11/11 02:11:14;;;;;;;5.07;4.57;;;;;;;2.25;100.00;101442.19;5071116;28;20174;-75
2021/11/11 02:13:40;;;;;;;4.73;4.23;;;;;;;1.75;100.00;101432.56;5070894;28;20175;-75
2021/11/11 02:16:06;;;;;;;6.23;3.70;;;;;;;1.87;100.00;101442.53;5070861;28;20171;-76
2021/11/11 02:18:32;;;;;;;4.77;4.03;;;;;;;1.97;100.00;101445.50;5070782;28;20652;-76
2021/11/11 02:20:57;;;;;;;4.10;3.70;;;;;;;1.97;100.00;101442.81;5070508;28;20323;-75
2021/11/11 02:23:23;;;;;;;4.30;3.87;;;;;;;1.95;100.00;101453.81;5070698;28;20634;-75
2021/11/11 02:25:48;;;;;;;5.37;4.10;;;;;;;1.96;100.00;101449.25;5070262;28;20175;-75
2021/11/11 02:28:17;;;;;;;5.43;4.80;;;;;;;1.97;100.00;101448.19;5069780;28;20179;-75
2021/11/11 02:30:46;;;;;;;4.10;3.60;;;;;;;1.90;100.00;101439.41;5070795;28;20244;-75
2021/11/11 02:33:15;;;;;;;4.20;3.73;;;;;;;1.82;100.00;101442.41;5070556;28;20193;-76
2021/11/11 02:35:40;;;;;;;3.97;3.57;;;;;;;1.85;100.00;101441.94;5070223;28;20189;-75
2021/11/11 02:38:07;;;;;;;6.57;3.73;;;;;;;1.88;100.00;101433.38;5070507;28;20182;-76
2021/11/11 02:40:33;;;;;;;4.00;3.63;;;;;;;1.79;100.00;101431.03;5070278;28;20662;-75
2021/11/11 02:42:59;;;;;;;5.03;4.57;;;;;;;1.75;100.00;101435.25;5070352;28;20513;-76
2021/11/11 02:45:31;;;;;;;6.37;4.70;;;;;;;1.61;100.00;101441.88;5068882;28;20315;-75
2021/11/11 02:47:57;;;;;;;5.97;4.57;;;;;;;1.67;100.00;101440.94;5070457;28;20181;-76
2021/11/11 02:50:24;;;;;;;6.30;4.43;;;;;;;1.59;100.00;101430.50;5070367;28;20202;-75
2021/11/11 02:52:51;;;;;;;4.70;3.30;;;;;;;1.28;100.00;101436.03;5070396;28;20171;-75
2021/11/11 02:55:17;;;;;;;3.70;3.40;;;;;;;1.35;100.00;101443.00;5068601;28;20269;-75
2021/11/11 02:57:46;;;;;;;4.87;3.83;;;;;;;1.36;100.00;101439.28;5070401;28;20257;-76
2021/11/11 03:00:14;;;;;;;5.00;3.90;;;;;;;1.46;100.00;101449.50;5070271;28;20182;-75
2021/11/11 03:02:44;;;;;;;4.20;3.80;;;;;;;1.51;100.00;101446.97;5070129;28;20228;-76
2021/11/11 03:05:12;;;;;;;4.27;3.83;;;;;;;1.62;100.00;101448.88;5069678;28;20175;-75
2021/11/11 03:07:39;;;;;;;4.23;3.83;;;;;;;1.60;100.00;101461.75;5068436;28;20676;-75
2021/11/11 03:10:07;;;;;;;3.20;2.93;;;;;;;1.58;100.00;101461.16;5068790;28;20273;-76
2021/11/11 03:12:32;;;;;;;4.03;3.73;;;;;;;1.61;100.00;101465.28;5069955;28;20277;-76
2021/11/11 03:14:59;;;;;;;4.07;3.70;;;;;;;1.61;100.00;101462.59;5069814;28;20689;-76
2021/11/11 03:17:25;;;;;;;3.53;2.70;;;;;;;1.49;100.00;101463.34;5068600;28;20623;-75
2021/11/11 03:19:50;;;;;;;4.37;3.67;;;;;;;1.43;100.00;101468.78;5068338;28;20178;-76
2021/11/11 03:22:20;;;;;;;4.97;3.97;;;;;;;1.57;100.00;101472.16;5069847;28;20214;-75
2021/11/11 03:24:48;;;;;;;4.17;3.77;;;;;;;1.72;100.00;101489.56;5069700;28;20557;-76
2021/11/11 03:27:13;;;;;;;7.30;4.10;;;;;;;1.73;100.00;101480.41;5069993;28;20178;-76
2021/11/11 03:29:38;;;;;;;4.73;4.23;;;;;;;1.60;100.00;101477.94;5069743;28;20266;-75
2021/11/11 03:32:05;;;;;;;4.60;4.20;;;;;;;1.44;100.00;101479.34;5069834;28;20610;-76
2021/11/11 03:34:31;;;;;;;4.20;3.77;;;;;;;1.46;100.00;101466.50;5069428;28;20240;-75
2021/11/11 03:36:56;;;;;;;5.13;4.63;;;;;;;1.56;100.00;101475.88;5069801;28;20182;-76
2021/11/11 03:39:24;;;;;;;7.13;4.63;;;;;;;1.48;100.00;101475.16;5073184;28;20257;-76
2021/11/11 03:41:51;;;;;;;5.07;4.07;;;;;;;1.70;100.00;101483.56;5073354;28;20681;-75
2021/11/11 03:44:18;;;;;;;4.50;3.67;;;;;;;1.95;100.00;101490.72;5071875;28;20182;-76
2021/11/11 03:46:45;;;;;;;5.40;4.90;;;;;;;2.01;100.00;101496.00;5073482;28;20263;-75
2021/11/11 03:49:10;;;;;;;6.37;4.70;;;;;;;1.92;100.00;101491.19;5073660;28;20558;-75
2021/11/11 03:51:36;;;;;;;4.17;3.47;;;;;;;1.92;100.00;101494.69;5072053;28;20186;-75
2021/11/11 03:54:01;;;;;;;4.50;3.77;;;;;;;1.96;100.00;101500.44;5073022;28;20185;-76
2021/11/11 03:56:27;;;;;;;4.67;4.27;;;;;;;2.04;100.00;101498.28;5073345;28;20253;-76
2021/11/11 03:58:52;;;;;;;6.23;3.87;;;;;;;1.87;100.00;101491.03;5073262;28;20204;-75
2021/11/11 04:01:18;;;;;;;5.40;4.53;;;;;;;1.60;100.00;101483.31;5073448;28;20202;-76
2021/11/11 04:03:44;;;;;;;14.37;4.23;;;;;;;1.67;100.00;101483.22;5072920;28;20185;-75
2021/11/11 04:06:09;;;;;;;7.10;4.97;;;;;;;1.48;100.00;101485.13;5072968;28;20171;-75
2021/11/11 04:08:34;;;;;;;6.33;4.83;;;;;;;1.44;100.00;101486.59;5072096;28;20204;-76
2021/11/11 04:11:01;;;;;;;6.10;5.47;;;;;;;1.44;100.00;101486.59;5072948;28;20174;-76
2021/11/11 04:13:28;;;;;;;6.13;4.37;;;;;;;1.60;100.00;101491.38;5072884;28;20175;-75
2021/11/11 04:15:54;;;;;;;5.40;4.90;;;;;;;1.63;100.00;101492.81;5073140;28;20179;-75
2021/11/11 04:18:19;;;;;;;7.10;5.00;;;;;;;1.61;100.00;101494.91;5072625;28;20178;-75
2021/11/11 04:20:44;;;;;;;5.60;5.10;;;;;;;1.68;100.00;101493.75;5072728;28;20565;-76
2021/11/11 04:23:10;;;;;;;7.97;4.53;;;;;;;2.00;100.00;101496.25;5072769;28;20331;-75
2021/11/11 04:25:53;;;;;;;4.00;3.53;;;;;;;2.22;100.00;101500.06;5071016;28;20174;-75
2021/11/11 04:28:24;;;;;;;4.57;4.20;;;;;;;2.57;100.00;101505.53;5072671;28;20170;-75
2021/11/11 04:30:53;;;;;;;10.53;5.67;;;;;;;2.75;100.00;101507.34;5072646;28;20169;-76
2021/11/11 04:33:19;;;;;;;5.90;4.73;;;;;;;3.04;100.00;101502.91;5072515;28;20175;-75
2021/11/11 04:35:49;;;;;;;5.13;3.67;;;;;;;3.47;100.00;101507.06;5072248;28;20221;-75
2021/11/11 04:46:12;;;;;;;13.07;8.47;;;;;;;4.54;100.00;101515.34;5072170;28;20209;-75
2021/11/11 05:04:48;;;;;;;5.60;5.10;;;;;;;3.31;100.00;101500.50;5072287;28;20684;-75
2021/11/11 05:07:13;;;;;;;9.20;5.97;;;;;;;3.32;100.00;101488.63;5072303;28;20190;-75
2021/11/11 05:09:39;;;;;;;11.50;5.53;;;;;;;3.14;100.00;101508.50;5072224;28;20538;-75
2021/11/11 05:12:04;;;;;;;6.10;5.10;;;;;;;2.71;100.00;101491.84;5070918;28;20175;-74
2021/11/11 05:14:30;;;;;;;6.70;4.90;;;;;;;2.81;100.00;101492.91;5071729;28;20175;-75
2021/11/11 05:16:55;;;;;;;8.50;7.43;;;;;;;3.06;100.00;101497.25;5071970;28;20179;-75
2021/11/11 05:19:20;;;;;;;18.63;10.13;;;;;;;3.28;100.00;101498.28;5071872;28;20179;-74
2021/11/11 05:21:46;;;;;;;10.10;7.40;;;;;;;3.35;100.00;101498.16;5071825;28;20210;-75
2021/11/11 05:24:11;;;;;;;19.23;12.93;;;;;;;3.12;100.00;101505.22;5071364;28;20533;-75
2021/11/11 05:26:38;;;;;;;14.50;9.87;;;;;;;2.90;100.00;101499.63;5071532;28;20245;-75
2021/11/11 05:29:03;;;;;;;13.70;10.80;;;;;;;3.28;100.00;101498.28;5071241;28;20602;-75
2021/11/11 05:31:29;;;;;;;16.90;12.67;;;;;;;3.40;100.00;101511.78;5071401;28;20204;-75
2021/11/11 05:33:54;;;;;;;7.53;6.83;;;;;;;3.57;100.00;101505.41;5070978;28;20234;-75
2021/11/11 05:36:19;;;;;;;6.87;6.17;;;;;;;3.85;100.00;101511.91;5071224;28;20645;-75
2021/11/11 05:38:45;;;;;;;9.43;7.20;;;;;;;4.12;100.00;101515.66;5071219;28;20166;-75
2021/11/11 05:41:10;;;;;;;10.67;8.23;;;;;;;4.38;100.00;101519.66;5069793;28;20575;-75
2021/11/11 05:43:35;;;;;;;8.17;5.30;;;;;;;4.59;100.00;101512.72;5071017;28;20626;-74
2021/11/11 05:46:01;;;;;;;9.00;7.90;;;;;;;4.72;100.00;101503.44;5071003;28;20253;-75
2021/11/11 05:48:26;;;;;;;7.87;7.03;;;;;;;4.83;100.00;101502.53;5070909;28;20645;-75
2021/11/11 05:50:52;;;;;;;9.40;7.53;;;;;;;4.91;100.00;101485.06;5070902;28;20174;-75
2021/11/11 05:53:18;;;;;;;9.70;7.50;;;;;;;4.99;100.00;101488.16;5070792;28;20179;-75
2021/11/11 05:55:44;;;;;;;9.07;8.17;;;;;;;5.06;100.00;101496.97;5070665;28;20681;-75
2021/11/11 05:58:09;;;;;;;8.10;7.30;;;;;;;4.54;100.00;101493.69;5071209;28;20262;-74
2021/11/11 06:00:35;;;;;;;7.53;6.00;;;;;;;4.68;100.00;101496.91;5070718;28;20206;-75
2021/11/11 06:03:00;;;;;;;13.93;7.33;;;;;;;4.71;100.00;101490.97;5070780;28;20171;-75
2021/11/11 06:05:26;;;;;;;8.17;6.07;;;;;;;4.91;100.00;101490.47;5070444;28;20178;-74
2021/11/11 06:07:52;;;;;;;5.67;5.17;;;;;;;5.14;100.00;101503.00;5070622;28;20590;-75
2021/11/11 06:10:18;;;;;;;3.90;3.47;;;;;;;5.26;100.00;101499.13;5070640;28;20197;-75
2021/11/11 06:12:44;;;;;;;6.17;4.47;;;;;;;5.37;100.00;101502.81;5070716;28;20622;-75
2021/11/11 06:15:09;;;;;;;7.83;6.00;;;;;;;5.45;100.00;101504.25;5070352;28;20173;-75
2021/11/11 06:17:35;;;;;;;7.07;5.17;;;;;;;5.51;100.00;101514.09;5070358;28;20167;-76
2021/11/11 06:20:09;;;;;;;11.00;7.33;;;;;;;5.55;100.00;101528.78;5070846;28;20255;-74
2021/11/11 06:22:35;;;;;;;11.83;7.70;;;;;;;5.61;100.00;101525.88;5069146;28;20229;-75
2021/11/11 06:25:00;;;;;;;7.27;6.63;;;;;;;5.02;100.00;101513.94;5070238;28;20707;-74
2021/11/11 06:27:25;;;;;;;7.30;6.60;;;;;;;4.52;100.00;101513.94;5070531;28;20175;-77
2021/11/11 06:29:51;;;;;;;9.27;6.40;;;;;;;4.27;100.00;101517.00;5070325;28;20533;-75
2021/11/11 06:32:17;;;;;;;7.50;6.57;;;;;;;4.17;100.00;101518.47;5068893;28;20273;-74
2021/11/11 06:34:42;;;;;;;8.80;7.10;;;;;;;4.05;100.00;101504.19;5070252;28;20224;-77
2021/11/11 06:37:07;;;;;;;8.33;7.47;;;;;;;4.03;100.00;101513.59;5070492;28;20175;-74
2021/11/11 06:39:33;;;;;;;8.10;5.97;;;;;;;3.97;100.00;101519.97;5070508;28;20170;-74
2021/11/11 06:41:58;;;;;;;8.60;6.43;;;;;;;4.17;100.00;101534.69;5070228;28;20224;-74
2021/11/11 06:44:24;;;;;;;8.97;6.27;;;;;;;4.29;100.00;101539.22;5070042;28;20309;-75
2021/11/11 06:46:50;;;;;;;6.50;5.90;;;;;;;4.17;100.00;101548.22;5070174;28;20207;-74
2021/11/11 06:49:16;;;;;;;7.43;6.73;;;;;;;4.04;100.00;101551.19;5070140;28;20721;-74
2021/11/11 06:51:42;;;;;;;7.57;6.77;;;;;;;3.75;100.00;101550.34;5070252;28;20215;-75
2021/11/11 06:54:08;;;;;;;8.70;6.27;;;;;;;4.04;100.00;101556.59;5069859;28;20198;-75
2021/11/11 06:56:35;;;;;;;6.90;5.77;;;;;;;4.32;100.00;101563.09;5070234;28;20252;-74
2021/11/11 06:59:00;;;;;;;7.23;6.03;;;;;;;4.32;100.00;101557.66;5070117;28;20181;-74
2021/11/11 07:01:25;;;;;;;9.03;5.87;;;;;;;3.93;100.00;101549.38;5066385;28;20202;-73
2021/11/11 07:03:51;;;;;;;7.10;6.50;;;;;;;3.81;100.00;101549.41;5070217;28;20185;-74
2021/11/11 07:06:16;;;;;;;7.10;6.13;;;;;;;3.76;100.00;101551.16;5068825;28;20182;-74
2021/11/11 07:08:41;;;;;;;7.00;6.30;;;;;;;3.86;100.00;101556.78;5070610;28;20174;-74
2021/11/11 07:11:09;;;;;;;8.20;6.57;;;;;;;3.77;100.00;101558.25;5070769;28;20182;-74
2021/11/11 07:13:35;;;;;;;8.50;6.83;;;;;;;4.01;100.00;101558.97;5071943;28;20585;-73
2021/11/11 07:16:01;;;;;;;7.17;6.47;;;;;;;3.86;100.00;101556.78;5074257;28;20267;-74
2021/11/11 07:18:27;;;;;;;8.07;7.27;;;;;;;3.82;100.00;101553.75;5074107;28;20657;-73
2021/11/11 07:20:53;;;;;;;8.70;6.70;;;;;;;3.85;100.00;101560.56;5072939;28;20214;-77
2021/11/11 07:23:22;;;;;;;7.37;6.67;;;;;;;3.72;100.00;101558.13;5074161;28;20778;-78
2021/11/11 07:25:48;;;;;;;7.60;6.73;;;;;;;3.91;100.00;101564.19;5073786;28;20634;-77
2021/11/11 07:28:15;;;;;;;9.13;7.57;;;;;;;3.97;100.00;101564.03;5074071;28;20265;-78
2021/11/11 07:30:41;;;;;;;9.10;7.23;;;;;;;4.01;100.00;101567.09;5074135;28;20174;-78
2021/11/11 07:33:07;;;;;;;9.97;7.33;;;;;;;4.35;100.00;101568.84;5074261;28;20206;-78
2021/11/11 07:35:32;;;;;;;7.70;7.00;;;;;;;4.41;100.00;101570.56;5073819;28;20656;-77
2021/11/11 07:37:59;;;;;;;7.63;6.63;;;;;;;4.24;100.00;101558.09;5073954;28;20175;-77
2021/11/11 07:40:25;;;;;;;8.80;7.97;;;;;;;4.51;100.00;101559.13;5073866;28;20650;-77
2021/11/11 07:42:51;;;;;;;6.70;6.07;;;;;;;4.60;100.00;101565.75;5072530;28;20178;-76
2021/11/11 07:45:18;;;;;;;9.23;6.83;;;;;;;4.68;100.00;101568.09;5073788;28;20252;-76
2021/11/11 07:47:44;;;;;;;6.77;6.17;;;;;;;4.76;100.00;101575.78;5073747;28;20402;-76
2021/11/11 07:50:10;;;;;;;11.10;7.50;;;;;;;4.76;100.00;101577.69;5073851;28;20213;-77
2021/11/11 07:52:36;;;;;;;9.43;8.43;;;;;;;4.93;100.00;101575.00;5073779;28;20656;-77
2021/11/11 07:55:03;;;;;;;11.20;7.47;;;;;;;4.96;100.00;101574.50;5072209;28;20174;-77
2021/11/11 07:57:31;;;;;;;5.97;5.40;;;;;;;4.95;100.00;101576.41;5074159;28;20179;-77
2021/11/11 07:59:57;;;;;;;7.40;6.70;;;;;;;5.00;100.00;101570.22;5073615;28;20185;-76
2021/11/11 08:02:23;;;;;;;8.13;7.23;;;;;;;5.05;100.00;101575.72;5073509;28;20210;-76
2021/11/11 08:04:50;;;;;;;9.43;8.37;;;;;;;4.90;100.00;101572.75;5073656;28;20239;-78
2021/11/11 08:07:17;;;;;;;17.13;10.67;;;;;;;4.77;100.00;101574.75;5073604;28;20637;-86
2021/11/11 08:09:44;;;;;;;9.07;6.57;;;;;;;4.91;100.00;101587.94;5073262;28;20201;-75
2021/11/11 08:12:10;;;;;;;9.43;6.80;;;;;;;5.02;100.00;101587.06;5069687;28;20255;-73
2021/11/11 08:14:35;;;;;;;6.57;5.97;;;;;;;5.11;100.00;101596.41;5069653;28;20630;-74
2021/11/11 08:17:04;;;;;;;9.93;6.97;;;;;;;5.13;100.00;101582.63;5073029;28;20185;-74
2021/11/11 08:19:29;;;;;;;6.97;6.17;;;;;;;5.17;100.00;101594.59;5072837;28;20525;-74
2021/11/11 08:21:55;;;;;;;6.93;6.37;;;;;;;5.20;100.00;101589.50;5073138;28;20198;-73
2021/11/11 08:24:20;;;;;;;8.63;6.57;;;;;;;5.20;100.00;101583.25;5071971;28;20189;-74
2021/11/11 08:26:46;;;;;;;9.00;6.70;;;;;;;5.08;100.00;101578.78;5072688;28;20904;-74
2021/11/11 08:29:11;;;;;;;12.37;7.53;;;;;;;5.01;100.00;101588.13;5072679;28;20170;-74
2021/11/11 08:31:37;;;;;;;8.17;7.47;;;;;;;5.12;100.00;101589.09;5070717;28;20187;-75
2021/11/11 08:34:03;;;;;;;8.67;6.77;;;;;;;5.28;100.00;101585.56;5072717;28;20178;-75
2021/11/11 08:36:28;;;;;;;8.87;7.60;;;;;;;5.26;100.00;101577.69;5073017;28;20174;-76
2021/11/11 08:38:55;;;;;;;10.83;7.97;;;;;;;5.05;100.00;101589.25;5073263;28;20202;-76
2021/11/11 08:41:20;;;;;;;9.83;7.93;;;;;;;4.98;100.00;101591.31;5073496;28;20221;-75
2021/11/11 08:43:47;;;;;;;11.07;8.73;;;;;;;4.90;100.00;101584.41;5073284;28;20190;-74
2021/11/11 08:46:12;;;;;;;9.03;8.17;;;;;;;4.92;100.00;101586.88;5072025;28;20269;-75
2021/11/11 08:48:38;;;;;;;10.10;8.13;;;;;;;4.99;100.00;101582.13;5071758;28;20271;-75
2021/11/11 08:51:03;;;;;;;8.10;7.20;;;;;;;5.22;100.00;101581.97;5073273;28;20174;-75
2021/11/11 08:53:30;;;;;;;13.83;8.20;;;;;;;5.37;100.00;101584.91;5073228;28;20665;-75
2021/11/11 08:55:56;;;;;;;11.33;8.77;;;;;;;5.51;100.00;101571.00;5073004;28;20170;-75
2021/11/11 08:58:22;;;;;;;9.47;7.93;;;;;;;5.52;100.00;101578.06;5073096;28;20178;-74
2021/11/11 09:00:50;;;;;;;10.53;8.77;;;;;;;5.47;100.00;101589.63;5073531;28;20832;-75
2021/11/11 09:03:17;;;;;;;9.37;8.37;;;;;;;5.59;100.00;101589.53;5072996;28;20623;-75
2021/11/11 09:05:43;;;;;;;9.97;9.03;;;;;;;5.67;100.00;101597.25;5073119;28;20178;-75
2021/11/11 09:08:09;;;;;;;6.37;5.77;;;;;;;5.95;100.00;101594.41;5072701;28;20193;-74
2021/11/11 09:10:37;;;;;;;9.13;8.27;;;;;;;6.07;100.00;101593.44;5073006;28;20175;-75
2021/11/11 09:13:02;;;;;;;7.50;5.63;;;;;;;6.32;100.00;101591.03;5072779;28;20224;-74
2021/11/11 09:15:29;;;;;;;5.33;4.83;;;;;;;6.49;100.00;101589.03;5072273;28;20202;-77
2021/11/11 09:17:56;;;;;;;4.30;3.90;;;;;;;6.59;100.00;101591.03;5071860;28;20642;-75
2021/11/11 09:20:22;;;;;;;1.97;1.70;;;;;;;6.67;100.00;101597.91;5071445;28;20257;-77
2021/11/11 09:22:48;;;;;;;4.83;3.97;;;;;;;6.70;100.00;101591.97;5070262;28;20223;-74
2021/11/11 09:25:14;;;;;;;1.40;1.00;;;;;;;6.76;100.00;101590.94;5071355;28;20177;-77
2021/11/11 09:27:41;;;;;;;3.93;3.63;;;;;;;6.78;100.00;101583.34;5071443;28;20174;-77
2021/11/11 09:30:10;;;;;;;0.93;0.80;;;;;;;6.82;100.00;101607.03;5071394;28;20170;-76
2021/11/11 09:32:37;;;;;;;3.27;2.77;;;;;;;6.83;100.00;101589.66;5071446;28;20186;-74
2021/11/11 09:35:05;;;;;;;2.33;1.87;;;;;;;6.82;100.00;101565.47;5071082;28;20178;-77
2021/11/11 09:37:30;;;;;;;2.90;2.40;;;;;;;6.82;100.00;101595.34;5070821;28;20630;-75
2021/11/11 09:39:56;;;;;;;1.63;1.53;;;;;;;6.86;100.00;101582.88;5071307;28;20174;-74
2021/11/11 09:42:23;;;;;;;2.77;2.37;;;;;;;6.90;100.00;101581.28;5071187;28;20205;-74
2021/11/11 09:44:48;;;;;;;2.53;2.33;;;;;;;6.98;100.00;101593.56;5070617;28;20266;-78
2021/11/11 09:47:14;;;;;;;1.17;1.17;;;;;;;7.03;100.00;101589.00;5071117;28;20175;-77
2021/11/11 09:49:40;;;;;;;5.10;4.43;;;;;;;7.01;100.00;101593.06;5071116;28;20220;-76
2021/11/11 09:52:06;;;;;;;3.70;3.40;;;;;;;7.03;100.00;101597.16;5069877;28;20178;-76
2021/11/11 09:59:43;;;;;;;2.37;2.27;;;;;;;7.13;100.00;101593.69;5070238;28;20692;-78
2021/11/11 10:02:12;;;;;;;4.73;3.67;;;;;;;7.13;100.00;101590.97;5070043;28;20218;-76
2021/11/11 10:04:38;;;;;;;2.30;2.10;;;;;;;7.18;100.00;101590.19;5067769;28;20178;-78
2021/11/11 10:07:05;;;;;;;4.00;2.27;;;;;;;7.08;100.00;101585.50;5070611;28;20209;-77
2021/11/11 10:09:31;;;;;;;3.63;1.10;;;;;;;7.14;100.00;101593.44;5070728;28;20170;-78
2021/11/11 10:12:03;;;;;;;1.20;1.03;;;;;;;7.15;100.00;101594.25;5070874;28;20177;-78
2021/11/11 10:14:34;;;;;;;0.97;0.97;;;;;;;7.18;100.00;101591.00;5070410;28;20179;-78
2021/11/11 10:17:05;;;;;;;2.43;2.20;;;;;;;7.24;100.00;101598.13;5070496;28;20587;-78
2021/11/11 10:19:34;;;;;;;2.73;1.93;;;;;;;7.21;100.00;101590.47;5069912;28;20166;-78
2021/11/11 10:22:11;;;;;;;2.73;2.53;;;;;;;7.25;100.00;101591.63;5070676;28;20603;-78
2021/11/11 10:28:03;;;;;;;1.80;1.63;;;;;;;7.34;100.00;101594.66;5070817;28;20539;-78
2021/11/11 10:30:25;;;;;;;2.20;2.10;;;;;;;7.39;100.00;101594.72;5064526;28;20595;-79
2021/11/11 10:33:12;;;;;;;1.80;1.70;;;;;;;7.39;100.00;101592.81;5070536;28;20174;-78
2021/11/11 10:35:43;;;;;;;3.70;2.77;;;;;;;7.51;100.00;101589.06;5070273;28;20200;-78
2021/11/11 10:38:14;;;;;;;4.40;3.50;;;;;;;7.60;100.00;101596.47;5070467;28;20177;-78
2021/11/11 10:40:46;;;;;;;2.73;2.27;;;;;;;7.64;100.00;101583.97;5070525;28;20202;-78
2021/11/11 10:43:16;;;;;;;3.13;2.67;;;;;;;7.61;100.00;101584.50;5070979;28;20300;-78
2021/11/11 10:45:44;;;;;;;3.57;2.40;;;;;;;7.64;100.00;101580.44;5070099;28;20223;-78
2021/11/11 10:48:13;;;;;;;4.20;1.90;;;;;;;7.63;100.00;101567.91;5069624;28;20179;-78
2021/11/11 10:50:42;;;;;;;2.53;2.10;;;;;;;7.61;100.00;101576.34;5071044;28;20170;-78
2021/11/11 10:53:10;;;;;;;2.70;2.13;;;;;;;7.61;100.00;101573.63;5070959;28;20179;-77
2021/11/11 10:55:38;;;;;;;2.47;2.27;;;;;;;7.59;100.00;101567.63;5069897;28;20247;-78
2021/11/11 10:58:06;;;;;;;1.40;1.00;;;;;;;7.58;100.00;101560.56;5070438;28;20221;-78
2021/11/11 11:00:33;;;;;;;1.73;1.57;;;;;;;7.47;100.00;101567.00;5070003;28;20190;-77
2021/11/11 11:03:02;;;;;;;4.00;1.57;;;;;;;7.46;100.00;101563.47;5070366;28;20198;-78
2021/11/11 11:05:34;;;;;;;1.63;1.53;;;;;;;7.40;100.00;101558.28;5069829;28;20224;-78
2021/11/11 11:08:08;;;;;;;1.93;1.73;;;;;;;7.37;100.00;101553.34;5070092;28;20244;-78
2021/11/11 11:10:35;;;;;;;2.27;2.07;;;;;;;7.37;100.00;101559.59;5070359;28;20173;-77
2021/11/11 11:13:17;;;;;;;1.10;1.03;;;;;;;7.33;100.00;101547.63;5070154;28;20163;-78
2021/11/11 11:15:53;;;;;;;3.77;2.33;;;;;;;7.32;100.00;101551.44;5069910;28;20321;-77
2021/11/11 11:18:23;;;;;;;3.73;2.60;;;;;;;7.36;100.00;101557.16;5068341;28;20174;-77
2021/11/11 11:20:48;;;;;;;2.57;2.27;;;;;;;7.30;100.00;101548.16;5070207;28;20220;-78
2021/11/11 11:23:29;;;;;;;1.43;1.33;;;;;;;7.31;100.00;101549.78;5069911;28;20671;-78
2021/11/11 11:25:55;;;;;;;2.37;2.17;;;;;;;7.27;100.00;101564.19;5069760;28;20505;-78
2021/11/11 11:28:38;;;;;;;1.50;1.40;;;;;;;7.21;100.00;101546.19;5069900;28;20178;-77
2021/11/11 11:31:06;;;;;;;1.80;1.67;;;;;;;7.26;100.00;101551.66;5069855;28;20170;-78
2021/11/11 11:33:44;;;;;;;2.87;1.93;;;;;;;7.26;100.00;101549.78;5065760;28;20520;-77
2021/11/11 11:36:17;;;;;;;0.83;0.83;;;;;;;7.25;100.00;101552.75;5063147;28;20178;-78
2021/11/11 11:38:51;;;;;;;2.60;1.63;;;;;;;7.29;100.00;101556.56;5069975;28;20811;-75
2021/11/11 11:41:32;;;;;;;3.57;1.03;;;;;;;7.33;100.00;101547.63;5070015;28;20198;-77
2021/11/11 11:44:15;;;;;;;1.97;1.87;;;;;;;7.34;100.00;101551.97;5049937;28;20489;-76
2021/11/11 11:46:41;;;;;;;2.60;1.63;;;;;;;7.35;100.00;101550.91;5050354;28;20254;-74
2021/11/11 11:49:07;;;;;;;3.33;3.03;;;;;;;7.36;100.00;101552.53;5050032;28;20263;-74
2021/11/11 11:51:35;;;;;;;3.20;2.63;;;;;;;7.43;100.00;101555.03;5050050;28;20250;-74
2021/11/11 11:56:35;;;;;;;2.90;2.60;;;;;;;7.47;100.00;101553.41;5049785;28;20187;-74
2021/11/11 11:59:05;;;;;;;3.63;2.00;;;;;;;7.46;100.00;101554.50;5061528;28;20543;-74